sensor_id;sensor_type;location;lat;lon;timestamp;P1;durP1;ratioP1;P2;durP2;ratioP2
20298;SDS011;10308;42.688;23.256;2022-09-28T00:01:30;9.85;;;8.85;;
20298;SDS011;10308;42.688;23.256;2022-09-28T00:03:59;10.55;;;9.40;;
20298;SDS011;10308;42.688;23.256;2022-09-28T00:06:27;10.05;;;8.35;;
20298;SDS011;10308;42.688;23.256;2022-09-28T00:08:54;9.88;;;8.85;;
20298;SDS011;10308;42.688;23.256;2022-09-28T00:11:22;10.18;;;9.18;;
20298;SDS011;10308;42.688;23.256;2022-09-28T00:13:52;9.63;;;8.82;;
20298;SDS011;10308;42.688;23.256;2022-09-28T00:16:22;10.30;;;9.40;;
20298;SDS011;10308;42.688;23.256;2022-09-28T00:18:50;9.50;;;8.60;;
20298;SDS011;10308;42.688;23.256;2022-09-28T00:21:19;10.05;;;9.05;;
20298;SDS011;10308;42.688;23.256;2022-09-28T00:23:50;9.70;;;8.70;;
20298;SDS011;10308;42.688;23.256;2022-09-28T00:26:35;9.60;;;8.70;;
20298;SDS011;10308;42.688;23.256;2022-09-28T00:29:02;7.47;;;6.78;;
20298;SDS011;10308;42.688;23.256;2022-09-28T00:31:30;8.38;;;7.57;;
20298;SDS011;10308;42.688;23.256;2022-09-28T00:33:58;7.65;;;6.95;;
20298;SDS011;10308;42.688;23.256;2022-09-28T00:36:26;7.03;;;6.32;;
20298;SDS011;10308;42.688;23.256;2022-09-28T00:38:54;6.68;;;6.07;;
20298;SDS011;10308;42.688;23.256;2022-09-28T00:41:22;7.05;;;6.45;;
20298;SDS011;10308;42.688;23.256;2022-09-28T00:43:49;6.53;;;5.93;;
20298;SDS011;10308;42.688;23.256;2022-09-28T00:46:16;7.07;;;6.38;;
20298;SDS011;10308;42.688;23.256;2022-09-28T00:48:48;6.97;;;6.22;;
20298;SDS011;10308;42.688;23.256;2022-09-28T00:51:18;6.97;;;6.30;;
20298;SDS011;10308;42.688;23.256;2022-09-28T00:53:46;7.18;;;6.32;;
20298;SDS011;10308;42.688;23.256;2022-09-28T00:56:15;6.38;;;5.70;;
20298;SDS011;10308;42.688;23.256;2022-09-28T00:58:44;6.30;;;5.70;;
20298;SDS011;10308;42.688;23.256;2022-09-28T01:01:14;6.18;;;5.68;;
20298;SDS011;10308;42.688;23.256;2022-09-28T01:03:40;5.55;;;5.05;;
20298;SDS011;10308;42.688;23.256;2022-09-28T01:06:10;5.93;;;5.30;;
20298;SDS011;10308;42.688;23.256;2022-09-28T01:08:42;5.97;;;5.30;;
20298;SDS011;10308;42.688;23.256;2022-09-28T01:11:11;5.97;;;5.35;;
20298;SDS011;10308;42.688;23.256;2022-09-28T01:13:38;5.68;;;5.18;;
20298;SDS011;10308;42.688;23.256;2022-09-28T01:16:06;6.50;;;5.85;;
20298;SDS011;10308;42.688;23.256;2022-09-28T01:18:38;6.20;;;5.60;;
20298;SDS011;10308;42.688;23.256;2022-09-28T01:21:08;6.65;;;5.95;;
20298;SDS011;10308;42.688;23.256;2022-09-28T01:23:48;5.70;;;5.15;;
20298;SDS011;10308;42.688;23.256;2022-09-28T01:26:39;6.05;;;5.53;;
20298;SDS011;10308;42.688;23.256;2022-09-28T01:29:21;5.50;;;5.00;;
20298;SDS011;10308;42.688;23.256;2022-09-28T01:31:59;5.80;;;5.20;;
20298;SDS011;10308;42.688;23.256;2022-09-28T01:34:29;5.60;;;5.10;;
20298;SDS011;10308;42.688;23.256;2022-09-28T01:37:01;5.97;;;5.40;;
20298;SDS011;10308;42.688;23.256;2022-09-28T01:39:31;6.30;;;5.70;;
20298;SDS011;10308;42.688;23.256;2022-09-28T01:42:02;5.15;;;4.72;;
20298;SDS011;10308;42.688;23.256;2022-09-28T01:44:31;5.60;;;5.10;;
20298;SDS011;10308;42.688;23.256;2022-09-28T01:47:05;5.80;;;5.20;;
20298;SDS011;10308;42.688;23.256;2022-09-28T01:49:33;5.20;;;4.70;;
20298;SDS011;10308;42.688;23.256;2022-09-28T01:52:03;5.20;;;4.70;;
20298;SDS011;10308;42.688;23.256;2022-09-28T01:54:38;5.60;;;4.55;;
20298;SDS011;10308;42.688;23.256;2022-09-28T01:57:10;4.70;;;4.30;;
20298;SDS011;10308;42.688;23.256;2022-09-28T01:59:41;5.28;;;4.88;;
20298;SDS011;10308;42.688;23.256;2022-09-28T02:02:11;4.80;;;4.40;;
20298;SDS011;10308;42.688;23.256;2022-09-28T02:04:40;5.38;;;4.70;;
20298;SDS011;10308;42.688;23.256;2022-09-28T02:07:11;5.60;;;5.10;;
20298;SDS011;10308;42.688;23.256;2022-09-28T02:09:41;5.28;;;4.72;;
20298;SDS011;10308;42.688;23.256;2022-09-28T02:12:13;5.32;;;4.88;;
20298;SDS011;10308;42.688;23.256;2022-09-28T02:14:42;5.50;;;5.00;;
20298;SDS011;10308;42.688;23.256;2022-09-28T02:17:10;4.90;;;4.45;;
20298;SDS011;10308;42.688;23.256;2022-09-28T02:19:40;5.00;;;4.50;;
20298;SDS011;10308;42.688;23.256;2022-09-28T02:22:10;5.32;;;4.70;;
20298;SDS011;10308;42.688;23.256;2022-09-28T02:24:41;5.97;;;4.88;;
20298;SDS011;10308;42.688;23.256;2022-09-28T02:27:16;5.30;;;4.80;;
20298;SDS011;10308;42.688;23.256;2022-09-28T02:29:44;5.30;;;4.90;;
20298;SDS011;10308;42.688;23.256;2022-09-28T02:32:11;5.47;;;4.88;;
20298;SDS011;10308;42.688;23.256;2022-09-28T02:34:38;5.60;;;5.13;;
20298;SDS011;10308;42.688;23.256;2022-09-28T02:37:05;5.30;;;4.78;;
20298;SDS011;10308;42.688;23.256;2022-09-28T02:39:32;5.47;;;4.93;;
20298;SDS011;10308;42.688;23.256;2022-09-28T02:42:01;5.53;;;5.03;;
20298;SDS011;10308;42.688;23.256;2022-09-28T02:44:53;5.72;;;5.10;;
20298;SDS011;10308;42.688;23.256;2022-09-28T02:47:29;5.38;;;4.90;;
20298;SDS011;10308;42.688;23.256;2022-09-28T02:50:06;5.68;;;5.05;;
20298;SDS011;10308;42.688;23.256;2022-09-28T02:52:56;5.90;;;5.30;;
20298;SDS011;10308;42.688;23.256;2022-09-28T02:55:39;6.43;;;5.82;;
20298;SDS011;10308;42.688;23.256;2022-09-28T02:58:13;7.82;;;5.93;;
20298;SDS011;10308;42.688;23.256;2022-09-28T03:00:48;6.53;;;5.97;;
20298;SDS011;10308;42.688;23.256;2022-09-28T03:03:21;7.85;;;6.10;;
20298;SDS011;10308;42.688;23.256;2022-09-28T03:05:56;7.55;;;5.78;;
20298;SDS011;10308;42.688;23.256;2022-09-28T03:08:26;6.35;;;5.85;;
20298;SDS011;10308;42.688;23.256;2022-09-28T03:10:57;6.38;;;5.88;;
20298;SDS011;10308;42.688;23.256;2022-09-28T03:13:25;7.43;;;6.18;;
20298;SDS011;10308;42.688;23.256;2022-09-28T03:16:05;7.65;;;6.85;;
20298;SDS011;10308;42.688;23.256;2022-09-28T03:18:33;6.80;;;6.15;;
20298;SDS011;10308;42.688;23.256;2022-09-28T03:21:00;6.00;;;5.32;;
20298;SDS011;10308;42.688;23.256;2022-09-28T03:23:27;6.93;;;6.22;;
20298;SDS011;10308;42.688;23.256;2022-09-28T03:25:54;6.45;;;5.45;;
20298;SDS011;10308;42.688;23.256;2022-09-28T03:28:21;6.78;;;5.97;;
20298;SDS011;10308;42.688;23.256;2022-09-28T03:30:47;6.82;;;6.28;;
20298;SDS011;10308;42.688;23.256;2022-09-28T03:33:16;6.80;;;6.20;;
20298;SDS011;10308;42.688;23.256;2022-09-28T03:35:45;6.60;;;5.82;;
20298;SDS011;10308;42.688;23.256;2022-09-28T03:38:12;7.32;;;6.38;;
20298;SDS011;10308;42.688;23.256;2022-09-28T03:40:39;8.45;;;7.65;;
20298;SDS011;10308;42.688;23.256;2022-09-28T03:43:06;9.43;;;8.52;;
20298;SDS011;10308;42.688;23.256;2022-09-28T03:45:32;9.45;;;8.45;;
20298;SDS011;10308;42.688;23.256;2022-09-28T03:48:00;13.13;;;11.02;;
20298;SDS011;10308;42.688;23.256;2022-09-28T03:50:28;10.35;;;9.35;;
20298;SDS011;10308;42.688;23.256;2022-09-28T03:52:55;12.63;;;11.32;;
20298;SDS011;10308;42.688;23.256;2022-09-28T03:55:28;12.25;;;10.95;;
20298;SDS011;10308;42.688;23.256;2022-09-28T03:57:55;10.73;;;9.73;;
20298;SDS011;10308;42.688;23.256;2022-09-28T04:00:22;9.05;;;8.18;;
20298;SDS011;10308;42.688;23.256;2022-09-28T04:02:49;8.88;;;8.07;;
20298;SDS011;10308;42.688;23.256;2022-09-28T04:05:16;10.27;;;7.30;;
20298;SDS011;10308;42.688;23.256;2022-09-28T04:07:44;8.50;;;7.70;;
20298;SDS011;10308;42.688;23.256;2022-09-28T04:10:11;8.40;;;7.60;;
20298;SDS011;10308;42.688;23.256;2022-09-28T04:12:37;8.05;;;7.35;;
20298;SDS011;10308;42.688;23.256;2022-09-28T04:15:04;9.07;;;8.23;;
20298;SDS011;10308;42.688;23.256;2022-09-28T04:17:32;8.88;;;7.25;;
20298;SDS011;10308;42.688;23.256;2022-09-28T04:19:58;7.47;;;6.78;;
20298;SDS011;10308;42.688;23.256;2022-09-28T04:22:27;7.70;;;6.90;;
20298;SDS011;10308;42.688;23.256;2022-09-28T04:24:55;6.32;;;5.72;;
20298;SDS011;10308;42.688;23.256;2022-09-28T04:27:22;7.55;;;6.72;;
20298;SDS011;10308;42.688;23.256;2022-09-28T04:30:07;8.93;;;6.80;;
20298;SDS011;10308;42.688;23.256;2022-09-28T04:32:34;7.63;;;6.78;;
20298;SDS011;10308;42.688;23.256;2022-09-28T04:35:04;9.55;;;7.38;;
20298;SDS011;10308;42.688;23.256;2022-09-28T04:37:32;8.02;;;7.13;;
20298;SDS011;10308;42.688;23.256;2022-09-28T04:40:01;7.55;;;6.78;;
20298;SDS011;10308;42.688;23.256;2022-09-28T04:42:27;6.97;;;6.32;;
20298;SDS011;10308;42.688;23.256;2022-09-28T04:44:54;8.55;;;7.00;;
20298;SDS011;10308;42.688;23.256;2022-09-28T04:47:22;8.88;;;7.13;;
20298;SDS011;10308;42.688;23.256;2022-09-28T04:49:49;7.65;;;6.95;;
20298;SDS011;10308;42.688;23.256;2022-09-28T04:52:16;7.13;;;6.40;;
20298;SDS011;10308;42.688;23.256;2022-09-28T04:54:43;8.35;;;7.55;;
20298;SDS011;10308;42.688;23.256;2022-09-28T04:57:11;9.30;;;7.05;;
20298;SDS011;10308;42.688;23.256;2022-09-28T04:59:38;8.70;;;6.75;;
20298;SDS011;10308;42.688;23.256;2022-09-28T05:02:04;7.57;;;6.75;;
20298;SDS011;10308;42.688;23.256;2022-09-28T05:04:31;7.03;;;6.32;;
20298;SDS011;10308;42.688;23.256;2022-09-28T05:06:58;6.68;;;6.07;;
20298;SDS011;10308;42.688;23.256;2022-09-28T05:09:25;6.90;;;6.13;;
20298;SDS011;10308;42.688;23.256;2022-09-28T05:11:51;7.20;;;6.18;;
20298;SDS011;10308;42.688;23.256;2022-09-28T05:14:19;9.00;;;7.38;;
20298;SDS011;10308;42.688;23.256;2022-09-28T05:16:47;7.85;;;7.05;;
20298;SDS011;10308;42.688;23.256;2022-09-28T05:19:14;7.38;;;6.68;;
20298;SDS011;10308;42.688;23.256;2022-09-28T05:21:42;7.40;;;6.80;;
20298;SDS011;10308;42.688;23.256;2022-09-28T05:24:09;7.50;;;6.80;;
20298;SDS011;10308;42.688;23.256;2022-09-28T05:26:36;7.75;;;7.00;;
20298;SDS011;10308;42.688;23.256;2022-09-28T05:29:03;7.35;;;6.57;;
20298;SDS011;10308;42.688;23.256;2022-09-28T05:31:31;7.63;;;6.70;;
20298;SDS011;10308;42.688;23.256;2022-09-28T05:33:58;7.20;;;6.35;;
20298;SDS011;10308;42.688;23.256;2022-09-28T05:36:25;8.18;;;7.00;;
20298;SDS011;10308;42.688;23.256;2022-09-28T05:38:52;8.57;;;7.68;;
20298;SDS011;10308;42.688;23.256;2022-09-28T05:41:19;7.95;;;7.15;;
20298;SDS011;10308;42.688;23.256;2022-09-28T05:43:46;7.93;;;7.15;;
20298;SDS011;10308;42.688;23.256;2022-09-28T05:46:15;7.00;;;6.03;;
20298;SDS011;10308;42.688;23.256;2022-09-28T05:48:43;6.85;;;6.20;;
20298;SDS011;10308;42.688;23.256;2022-09-28T05:51:10;6.50;;;5.90;;
20298;SDS011;10308;42.688;23.256;2022-09-28T05:53:37;7.07;;;6.47;;
20298;SDS011;10308;42.688;23.256;2022-09-28T05:56:04;7.30;;;6.50;;
20298;SDS011;10308;42.688;23.256;2022-09-28T05:58:31;7.63;;;6.00;;
20298;SDS011;10308;42.688;23.256;2022-09-28T06:00:57;13.65;;;12.50;;
20298;SDS011;10308;42.688;23.256;2022-09-28T06:03:24;17.90;;;16.48;;
20298;SDS011;10308;42.688;23.256;2022-09-28T06:05:53;19.65;;;17.75;;
20298;SDS011;10308;42.688;23.256;2022-09-28T06:08:20;21.17;;;19.17;;
20298;SDS011;10308;42.688;23.256;2022-09-28T06:10:47;19.00;;;17.13;;
20298;SDS011;10308;42.688;23.256;2022-09-28T06:13:14;16.95;;;15.35;;
20298;SDS011;10308;42.688;23.256;2022-09-28T06:15:41;14.40;;;12.48;;
20298;SDS011;10308;42.688;23.256;2022-09-28T06:18:10;14.75;;;13.23;;
20298;SDS011;10308;42.688;23.256;2022-09-28T06:20:39;14.50;;;12.98;;
20298;SDS011;10308;42.688;23.256;2022-09-28T06:23:08;14.50;;;13.00;;
20298;SDS011;10308;42.688;23.256;2022-09-28T06:25:35;16.88;;;15.48;;
20298;SDS011;10308;42.688;23.256;2022-09-28T06:28:03;15.50;;;14.10;;
20298;SDS011;10308;42.688;23.256;2022-09-28T06:30:31;16.15;;;14.77;;
20298;SDS011;10308;42.688;23.256;2022-09-28T06:32:59;21.52;;;19.38;;
20298;SDS011;10308;42.688;23.256;2022-09-28T06:35:27;18.98;;;17.10;;
20298;SDS011;10308;42.688;23.256;2022-09-28T06:37:55;16.52;;;14.77;;
20298;SDS011;10308;42.688;23.256;2022-09-28T06:40:24;13.88;;;12.57;;
20298;SDS011;10308;42.688;23.256;2022-09-28T06:42:54;13.27;;;11.93;;
20298;SDS011;10308;42.688;23.256;2022-09-28T06:45:22;12.80;;;11.60;;
20298;SDS011;10308;42.688;23.256;2022-09-28T06:47:53;12.80;;;11.27;;
20298;SDS011;10308;42.688;23.256;2022-09-28T06:50:21;11.73;;;10.45;;
20298;SDS011;10308;42.688;23.256;2022-09-28T06:52:49;11.65;;;10.45;;
20298;SDS011;10308;42.688;23.256;2022-09-28T06:55:17;11.50;;;10.43;;
20298;SDS011;10308;42.688;23.256;2022-09-28T06:57:45;14.32;;;12.85;;
20298;SDS011;10308;42.688;23.256;2022-09-28T07:00:13;17.40;;;15.80;;
20298;SDS011;10308;42.688;23.256;2022-09-28T07:02:40;17.77;;;16.02;;
20298;SDS011;10308;42.688;23.256;2022-09-28T07:05:08;16.17;;;14.60;;
20298;SDS011;10308;42.688;23.256;2022-09-28T07:07:37;14.32;;;12.95;;
20298;SDS011;10308;42.688;23.256;2022-09-28T07:10:05;21.00;;;16.05;;
20298;SDS011;10308;42.688;23.256;2022-09-28T07:12:33;16.40;;;14.73;;
20298;SDS011;10308;42.688;23.256;2022-09-28T07:15:02;17.67;;;15.88;;
20298;SDS011;10308;42.688;23.256;2022-09-28T07:17:29;23.15;;;17.15;;
20298;SDS011;10308;42.688;23.256;2022-09-28T07:19:57;21.30;;;19.02;;
20298;SDS011;10308;42.688;23.256;2022-09-28T07:22:24;21.15;;;18.90;;
20298;SDS011;10308;42.688;23.256;2022-09-28T07:24:51;21.13;;;18.73;;
20298;SDS011;10308;42.688;23.256;2022-09-28T07:27:18;24.00;;;21.50;;
20298;SDS011;10308;42.688;23.256;2022-09-28T07:29:45;27.27;;;24.35;;
20298;SDS011;10308;42.688;23.256;2022-09-28T07:32:13;25.77;;;23.30;;
20298;SDS011;10308;42.688;23.256;2022-09-28T07:34:40;21.23;;;19.17;;
20298;SDS011;10308;42.688;23.256;2022-09-28T07:37:08;18.02;;;16.23;;
20298;SDS011;10308;42.688;23.256;2022-09-28T07:39:37;16.25;;;14.60;;
20298;SDS011;10308;42.688;23.256;2022-09-28T07:42:18;15.43;;;13.82;;
20298;SDS011;10308;42.688;23.256;2022-09-28T07:44:44;16.63;;;14.90;;
20298;SDS011;10308;42.688;23.256;2022-09-28T07:47:11;16.90;;;15.10;;
20298;SDS011;10308;42.688;23.256;2022-09-28T07:49:40;17.77;;;15.88;;
20298;SDS011;10308;42.688;23.256;2022-09-28T07:52:06;17.50;;;15.82;;
20298;SDS011;10308;42.688;23.256;2022-09-28T07:54:34;17.75;;;15.85;;
20298;SDS011;10308;42.688;23.256;2022-09-28T07:57:04;17.40;;;15.57;;
20298;SDS011;10308;42.688;23.256;2022-09-28T07:59:31;17.42;;;15.65;;
20298;SDS011;10308;42.688;23.256;2022-09-28T08:01:57;18.25;;;15.40;;
20298;SDS011;10308;42.688;23.256;2022-09-28T08:04:26;18.13;;;14.23;;
20298;SDS011;10308;42.688;23.256;2022-09-28T08:06:54;15.55;;;13.60;;
20298;SDS011;10308;42.688;23.256;2022-09-28T08:09:21;13.75;;;12.30;;
20298;SDS011;10308;42.688;23.256;2022-09-28T08:11:48;13.40;;;12.00;;
20298;SDS011;10308;42.688;23.256;2022-09-28T08:14:14;11.13;;;9.40;;
20298;SDS011;10308;42.688;23.256;2022-09-28T08:16:42;8.75;;;7.90;;
20298;SDS011;10308;42.688;23.256;2022-09-28T08:19:10;10.55;;;8.00;;
20298;SDS011;10308;42.688;23.256;2022-09-28T08:21:38;9.77;;;8.43;;
20298;SDS011;10308;42.688;23.256;2022-09-28T08:24:09;10.43;;;8.35;;
20298;SDS011;10308;42.688;23.256;2022-09-28T08:26:36;9.20;;;8.40;;
20298;SDS011;10308;42.688;23.256;2022-09-28T08:29:03;12.18;;;9.75;;
20298;SDS011;10308;42.688;23.256;2022-09-28T08:31:30;14.73;;;11.23;;
20298;SDS011;10308;42.688;23.256;2022-09-28T08:33:57;12.85;;;11.65;;
20298;SDS011;10308;42.688;23.256;2022-09-28T08:36:24;14.35;;;10.93;;
20298;SDS011;10308;42.688;23.256;2022-09-28T08:38:53;14.15;;;12.75;;
20298;SDS011;10308;42.688;23.256;2022-09-28T08:41:23;12.95;;;11.55;;
20298;SDS011;10308;42.688;23.256;2022-09-28T08:46:48;14.55;;;10.98;;
20298;SDS011;10308;42.688;23.256;2022-09-28T08:49:18;12.40;;;11.10;;
20298;SDS011;10308;42.688;23.256;2022-09-28T08:51:50;12.13;;;10.82;;
20298;SDS011;10308;42.688;23.256;2022-09-28T08:54:26;13.10;;;10.13;;
20298;SDS011;10308;42.688;23.256;2022-09-28T08:57:00;11.93;;;10.63;;
20298;SDS011;10308;42.688;23.256;2022-09-28T08:59:30;12.02;;;10.43;;
20298;SDS011;10308;42.688;23.256;2022-09-28T09:02:12;11.32;;;9.75;;
20298;SDS011;10308;42.688;23.256;2022-09-28T09:04:40;10.88;;;8.90;;
20298;SDS011;10308;42.688;23.256;2022-09-28T09:07:18;11.85;;;8.85;;
20298;SDS011;10308;42.688;23.256;2022-09-28T09:10:05;11.18;;;8.27;;
20298;SDS011;10308;42.688;23.256;2022-09-28T09:12:40;11.65;;;8.40;;
20298;SDS011;10308;42.688;23.256;2022-09-28T09:15:16;11.30;;;7.45;;
20298;SDS011;10308;42.688;23.256;2022-09-28T09:17:49;8.55;;;6.72;;
20298;SDS011;10308;42.688;23.256;2022-09-28T09:20:24;7.18;;;6.47;;
20298;SDS011;10308;42.688;23.256;2022-09-28T09:22:56;7.53;;;6.75;;
20298;SDS011;10308;42.688;23.256;2022-09-28T09:25:26;6.93;;;5.72;;
20298;SDS011;10308;42.688;23.256;2022-09-28T09:28:04;7.47;;;6.05;;
20298;SDS011;10308;42.688;23.256;2022-09-28T09:30:43;9.75;;;5.53;;
20298;SDS011;10308;42.688;23.256;2022-09-28T09:33:26;7.65;;;6.05;;
20298;SDS011;10308;42.688;23.256;2022-09-28T09:36:04;6.65;;;5.30;;
20298;SDS011;10308;42.688;23.256;2022-09-28T09:38:52;7.38;;;4.97;;
20298;SDS011;10308;42.688;23.256;2022-09-28T09:41:31;7.70;;;4.82;;
20298;SDS011;10308;42.688;23.256;2022-09-28T09:47:04;8.02;;;4.30;;
20298;SDS011;10308;42.688;23.256;2022-09-28T09:49:33;5.25;;;3.65;;
20298;SDS011;10308;42.688;23.256;2022-09-28T09:52:03;9.77;;;5.90;;
20298;SDS011;10308;42.688;23.256;2022-09-28T09:54:34;9.05;;;6.90;;
20298;SDS011;10308;42.688;23.256;2022-09-28T09:57:06;9.15;;;7.00;;
20298;SDS011;10308;42.688;23.256;2022-09-28T09:59:36;8.43;;;6.63;;
20298;SDS011;10308;42.688;23.256;2022-09-28T10:02:08;10.43;;;6.78;;
20298;SDS011;10308;42.688;23.256;2022-09-28T10:04:47;9.13;;;6.50;;
20298;SDS011;10308;42.688;23.256;2022-09-28T10:07:17;9.00;;;6.10;;
20298;SDS011;10308;42.688;23.256;2022-09-28T10:09:47;9.45;;;6.00;;
20298;SDS011;10308;42.688;23.256;2022-09-28T10:12:18;7.32;;;5.82;;
20298;SDS011;10308;42.688;23.256;2022-09-28T10:14:46;9.32;;;5.30;;
20298;SDS011;10308;42.688;23.256;2022-09-28T10:17:14;5.07;;;4.10;;
20298;SDS011;10308;42.688;23.256;2022-09-28T10:19:42;7.30;;;4.55;;
20298;SDS011;10308;42.688;23.256;2022-09-28T10:22:10;5.13;;;4.43;;
20298;SDS011;10308;42.688;23.256;2022-09-28T10:24:40;7.90;;;4.50;;
20298;SDS011;10308;42.688;23.256;2022-09-28T10:27:12;5.10;;;3.45;;
20298;SDS011;10308;42.688;23.256;2022-09-28T10:29:44;7.57;;;3.75;;
20298;SDS011;10308;42.688;23.256;2022-09-28T10:32:17;6.15;;;3.80;;
20298;SDS011;10308;42.688;23.256;2022-09-28T10:34:45;9.23;;;3.67;;
20298;SDS011;10308;42.688;23.256;2022-09-28T10:37:12;6.10;;;3.10;;
20298;SDS011;10308;42.688;23.256;2022-09-28T10:39:42;3.88;;;3.00;;
20298;SDS011;10308;42.688;23.256;2022-09-28T10:42:16;4.40;;;3.22;;
20298;SDS011;10308;42.688;23.256;2022-09-28T10:44:53;4.57;;;2.92;;
20298;SDS011;10308;42.688;23.256;2022-09-28T10:47:22;4.97;;;3.20;;
20298;SDS011;10308;42.688;23.256;2022-09-28T10:49:50;4.72;;;2.92;;
20298;SDS011;10308;42.688;23.256;2022-09-28T10:57:54;2.28;;;1.75;;
20298;SDS011;10308;42.688;23.256;2022-09-28T11:00:37;5.63;;;2.22;;
20298;SDS011;10308;42.688;23.256;2022-09-28T11:03:04;4.40;;;2.97;;
20298;SDS011;10308;42.688;23.256;2022-09-28T11:05:32;5.05;;;4.00;;
20298;SDS011;10308;42.688;23.256;2022-09-28T11:08:03;8.57;;;5.55;;
20298;SDS011;10308;42.688;23.256;2022-09-28T11:10:32;5.55;;;4.32;;
20298;SDS011;10308;42.688;23.256;2022-09-28T11:12:59;6.20;;;4.00;;
20298;SDS011;10308;42.688;23.256;2022-09-28T11:15:27;5.13;;;3.50;;
20298;SDS011;10308;42.688;23.256;2022-09-28T11:18:01;3.70;;;3.03;;
20298;SDS011;10308;42.688;23.256;2022-09-28T11:20:43;3.08;;;2.78;;
20298;SDS011;10308;42.688;23.256;2022-09-28T11:23:15;4.90;;;2.97;;
20298;SDS011;10308;42.688;23.256;2022-09-28T11:25:54;5.72;;;3.58;;
20298;SDS011;10308;42.688;23.256;2022-09-28T11:28:22;4.32;;;2.53;;
20298;SDS011;10308;42.688;23.256;2022-09-28T11:30:51;2.78;;;2.53;;
20298;SDS011;10308;42.688;23.256;2022-09-28T11:33:21;4.35;;;3.03;;
20298;SDS011;10308;42.688;23.256;2022-09-28T11:35:54;3.60;;;2.50;;
20298;SDS011;10308;42.688;23.256;2022-09-28T11:38:28;4.45;;;3.10;;
20298;SDS011;10308;42.688;23.256;2022-09-28T11:43:49;2.60;;;2.30;;
20298;SDS011;10308;42.688;23.256;2022-09-28T11:46:23;3.10;;;2.80;;
20298;SDS011;10308;42.688;23.256;2022-09-28T11:48:55;3.33;;;2.70;;
20298;SDS011;10308;42.688;23.256;2022-09-28T11:51:25;3.88;;;2.65;;
20298;SDS011;10308;42.688;23.256;2022-09-28T11:53:55;3.75;;;1.90;;
20298;SDS011;10308;42.688;23.256;2022-09-28T11:56:27;2.30;;;2.03;;
20298;SDS011;10308;42.688;23.256;2022-09-28T11:59:16;5.07;;;2.45;;
20298;SDS011;10308;42.688;23.256;2022-09-28T12:01:46;3.90;;;2.40;;
20298;SDS011;10308;42.688;23.256;2022-09-28T12:04:19;2.70;;;1.92;;
20298;SDS011;10308;42.688;23.256;2022-09-28T12:06:49;4.32;;;2.35;;
20298;SDS011;10308;42.688;23.256;2022-09-28T12:09:19;3.45;;;2.00;;
20298;SDS011;10308;42.688;23.256;2022-09-28T12:11:48;3.35;;;2.10;;
20298;SDS011;10308;42.688;23.256;2022-09-28T12:14:17;4.18;;;2.20;;
20298;SDS011;10308;42.688;23.256;2022-09-28T12:16:47;3.90;;;2.50;;
20298;SDS011;10308;42.688;23.256;2022-09-28T12:19:19;2.15;;;1.67;;
20298;SDS011;10308;42.688;23.256;2022-09-28T12:21:48;3.88;;;2.05;;
20298;SDS011;10308;42.688;23.256;2022-09-28T12:24:17;3.28;;;2.25;;
20298;SDS011;10308;42.688;23.256;2022-09-28T12:26:47;2.22;;;1.88;;
20298;SDS011;10308;42.688;23.256;2022-09-28T12:29:19;2.53;;;1.80;;
20298;SDS011;10308;42.688;23.256;2022-09-28T12:31:54;2.85;;;1.80;;
20298;SDS011;10308;42.688;23.256;2022-09-28T12:34:25;3.35;;;1.70;;
20298;SDS011;10308;42.688;23.256;2022-09-28T12:36:59;5.82;;;1.63;;
20298;SDS011;10308;42.688;23.256;2022-09-28T12:39:37;2.13;;;1.92;;
20298;SDS011;10308;42.688;23.256;2022-09-28T12:42:16;2.65;;;1.80;;
20298;SDS011;10308;42.688;23.256;2022-09-28T12:44:56;2.65;;;1.50;;
20298;SDS011;10308;42.688;23.256;2022-09-28T12:50:34;2.45;;;1.50;;
20298;SDS011;10308;42.688;23.256;2022-09-28T12:53:14;1.80;;;1.70;;
20298;SDS011;10308;42.688;23.256;2022-09-28T12:55:51;2.38;;;1.70;;
20298;SDS011;10308;42.688;23.256;2022-09-28T12:58:23;3.95;;;1.63;;
20298;SDS011;10308;42.688;23.256;2022-09-28T13:01:00;2.42;;;1.58;;
20298;SDS011;10308;42.688;23.256;2022-09-28T13:03:47;2.33;;;1.67;;
20298;SDS011;10308;42.688;23.256;2022-09-28T13:06:33;3.00;;;1.58;;
20298;SDS011;10308;42.688;23.256;2022-09-28T13:09:06;1.83;;;1.58;;
20298;SDS011;10308;42.688;23.256;2022-09-28T13:11:43;3.10;;;1.80;;
20298;SDS011;10308;42.688;23.256;2022-09-28T13:14:26;3.63;;;2.00;;
20298;SDS011;10308;42.688;23.256;2022-09-28T13:17:13;1.50;;;1.40;;
20298;SDS011;10308;42.688;23.256;2022-09-28T13:19:47;1.63;;;1.52;;
20298;SDS011;10308;42.688;23.256;2022-09-28T13:22:22;2.63;;;1.45;;
20298;SDS011;10308;42.688;23.256;2022-09-28T13:24:54;1.70;;;1.60;;
20298;SDS011;10308;42.688;23.256;2022-09-28T13:27:25;2.38;;;1.67;;
20298;SDS011;10308;42.688;23.256;2022-09-28T13:29:55;2.67;;;1.50;;
20298;SDS011;10308;42.688;23.256;2022-09-28T13:32:24;2.42;;;1.80;;
20298;SDS011;10308;42.688;23.256;2022-09-28T13:34:54;3.50;;;3.20;;
20298;SDS011;10308;42.688;23.256;2022-09-28T13:37:23;1.92;;;1.83;;
20298;SDS011;10308;42.688;23.256;2022-09-28T13:39:51;2.65;;;1.60;;
20298;SDS011;10308;42.688;23.256;2022-09-28T13:42:24;2.38;;;1.65;;
20298;SDS011;10308;42.688;23.256;2022-09-28T13:50:53;1.92;;;1.50;;
20298;SDS011;10308;42.688;23.256;2022-09-28T13:53:58;1.60;;;1.50;;
20298;SDS011;10308;42.688;23.256;2022-09-28T13:56:34;2.28;;;1.77;;
20298;SDS011;10308;42.688;23.256;2022-09-28T13:59:07;1.80;;;1.70;;
20298;SDS011;10308;42.688;23.256;2022-09-28T14:01:37;2.35;;;1.33;;
20298;SDS011;10308;42.688;23.256;2022-09-28T14:04:11;1.52;;;1.30;;
20298;SDS011;10308;42.688;23.256;2022-09-28T14:06:42;1.58;;;1.48;;
20298;SDS011;10308;42.688;23.256;2022-09-28T14:09:24;2.13;;;1.58;;
20298;SDS011;10308;42.688;23.256;2022-09-28T14:11:53;2.30;;;1.45;;
20298;SDS011;10308;42.688;23.256;2022-09-28T14:14:28;1.25;;;1.20;;
20298;SDS011;10308;42.688;23.256;2022-09-28T14:20:15;1.63;;;1.50;;
20298;SDS011;10308;42.688;23.256;2022-09-28T14:22:48;2.83;;;1.50;;
20298;SDS011;10308;42.688;23.256;2022-09-28T14:25:24;1.42;;;1.33;;
20298;SDS011;10308;42.688;23.256;2022-09-28T14:28:04;1.95;;;1.30;;
20298;SDS011;10308;42.688;23.256;2022-09-28T14:30:45;1.45;;;1.30;;
20298;SDS011;10308;42.688;23.256;2022-09-28T14:33:15;2.42;;;1.75;;
20298;SDS011;10308;42.688;23.256;2022-09-28T14:35:50;4.50;;;1.70;;
20298;SDS011;10308;42.688;23.256;2022-09-28T14:38:21;2.22;;;1.73;;
20298;SDS011;10308;42.688;23.256;2022-09-28T14:41:08;1.58;;;1.48;;
20298;SDS011;10308;42.688;23.256;2022-09-28T14:43:58;2.83;;;1.88;;
20298;SDS011;10308;42.688;23.256;2022-09-28T14:52:18;3.53;;;2.72;;
20298;SDS011;10308;42.688;23.256;2022-09-28T14:55:07;3.15;;;1.77;;
20298;SDS011;10308;42.688;23.256;2022-09-28T14:57:38;3.38;;;1.60;;
20298;SDS011;10308;42.688;23.256;2022-09-28T15:00:06;2.65;;;1.83;;
20298;SDS011;10308;42.688;23.256;2022-09-28T15:02:34;3.22;;;1.67;;
20298;SDS011;10308;42.688;23.256;2022-09-28T15:05:08;1.88;;;1.42;;
20298;SDS011;10308;42.688;23.256;2022-09-28T15:07:42;1.75;;;1.65;;
20298;SDS011;10308;42.688;23.256;2022-09-28T15:10:20;2.05;;;1.65;;
20298;SDS011;10308;42.688;23.256;2022-09-28T15:12:50;2.33;;;1.77;;
20298;SDS011;10308;42.688;23.256;2022-09-28T15:15:22;2.80;;;1.48;;
20298;SDS011;10308;42.688;23.256;2022-09-28T15:17:53;1.92;;;1.48;;
20298;SDS011;10308;42.688;23.256;2022-09-28T15:20:24;2.15;;;1.35;;
20298;SDS011;10308;42.688;23.256;2022-09-28T15:22:54;3.03;;;1.30;;